Terminal Aerodrome Forecast
Issued by NWS

Home | Current Version | Previous Version | Text Only | Print | Product List | Glossary On
Versions: 1 2 3 4 5 6 7 8 9 10 11 12 13 14
000
FTUS46 KLOX 100500
TAFPMD
TAF
KPMD 100524Z 1006/1106 23012KT P6SM SKC
     FM101000 20007KT P6SM SKC
     FM101500 VRB03KT P6SM SKC
     FM101800 25014G20KT P6SM SKC
     FM102200 23020G30KT P6SM SKC
     FM110100 23014KT P6SM SKC=

USA.gov is the U.S. government's official web portal to all federal, state and local government web resources and services.